createdAt,value
2022-10-31T00:00:19.064Z,11.9
2022-10-31T00:01:19.278Z,11.9
2022-10-31T00:02:19.215Z,11.8
2022-10-31T00:03:19.298Z,11.8
2022-10-31T00:04:19.048Z,11.8
2022-10-31T00:05:19.329Z,11.8
2022-10-31T00:06:19.072Z,11.8
2022-10-31T00:07:19.056Z,11.8
2022-10-31T00:08:19.004Z,11.8
2022-10-31T00:09:18.991Z,11.8
2022-10-31T00:10:19.002Z,11.8
2022-10-31T00:11:19.048Z,11.8
2022-10-31T00:12:19.294Z,11.7
2022-10-31T00:13:19.052Z,11.7
2022-10-31T00:14:19.001Z,11.7
2022-10-31T00:15:19.010Z,11.7
2022-10-31T00:16:19.005Z,11.7
2022-10-31T00:17:19.010Z,11.7
2022-10-31T00:18:19.038Z,11.7
2022-10-31T00:19:19.002Z,11.7
2022-10-31T00:20:18.996Z,11.7
2022-10-31T00:21:19.010Z,11.7
2022-10-31T00:22:19.011Z,11.7
2022-10-31T00:23:18.997Z,11.7
2022-10-31T00:24:19.005Z,11.7
2022-10-31T00:25:19.012Z,11.7
2022-10-31T00:26:19.007Z,11.6
2022-10-31T00:27:18.998Z,11.7
2022-10-31T00:29:19.026Z,11.7
2022-10-31T00:30:18.996Z,11.7
2022-10-31T00:31:19.004Z,11.7
2022-10-31T00:32:19.007Z,11.7
2022-10-31T00:33:18.998Z,11.7
2022-10-31T00:34:19.011Z,11.7
2022-10-31T00:35:19.004Z,11.7
2022-10-31T00:36:19.012Z,11.7
2022-10-31T00:37:18.996Z,11.7
2022-10-31T00:38:19.002Z,11.7
2022-10-31T00:39:19.025Z,11.7
2022-10-31T00:40:19.054Z,11.6
2022-10-31T00:41:19.113Z,11.6
2022-10-31T00:42:19.004Z,11.6
2022-10-31T00:43:19.006Z,11.6
2022-10-31T00:44:19.003Z,11.5
2022-10-31T00:45:19.014Z,11.5
2022-10-31T00:46:19.013Z,11.5
2022-10-31T00:47:18.995Z,11.5
2022-10-31T00:48:19.002Z,11.5
2022-10-31T00:49:19.002Z,11.4
2022-10-31T00:50:19.059Z,11.4
2022-10-31T00:51:19.011Z,11.5
2022-10-31T00:52:19.015Z,11.5
2022-10-31T00:53:19.024Z,11.5
2022-10-31T00:54:19.000Z,11.5
2022-10-31T00:55:18.998Z,11.5
2022-10-31T00:56:18.997Z,11.5
2022-10-31T00:57:18.998Z,11.6
2022-10-31T00:58:19.015Z,11.6
2022-10-31T00:59:19.009Z,11.7
2022-10-31T01:00:18.999Z,11.7
2022-10-31T01:01:19.124Z,11.7
2022-10-31T01:02:19.103Z,11.7
2022-10-31T01:03:19.017Z,11.7
2022-10-31T01:04:19.025Z,11.8
2022-10-31T01:05:18.998Z,11.8
2022-10-31T01:06:19.008Z,11.8
2022-10-31T01:07:19.010Z,11.9
2022-10-31T01:08:19.002Z,11.9
2022-10-31T01:09:19.018Z,12
2022-10-31T01:10:19.007Z,12
2022-10-31T01:11:19.009Z,12
2022-10-31T01:12:19.008Z,12.1
2022-10-31T01:13:19.137Z,12.1
2022-10-31T01:14:19.030Z,12.1
2022-10-31T01:15:19.009Z,12.2
2022-10-31T01:16:19.021Z,12.2
2022-10-31T01:17:19.001Z,12.2
2022-10-31T01:18:19.006Z,12.3
2022-10-31T01:19:19.003Z,12.3
2022-10-31T01:20:18.995Z,12.3
2022-10-31T01:21:18.996Z,12.4
2022-10-31T01:22:18.988Z,12.4
2022-10-31T01:23:18.990Z,12.4
2022-10-31T01:24:18.997Z,12.4
2022-10-31T01:25:18.989Z,12.5
2022-10-31T01:26:19.015Z,12.5
2022-10-31T01:27:19.162Z,12.6
2022-10-31T01:28:19.057Z,12.6
2022-10-31T01:29:18.990Z,12.6
2022-10-31T01:30:19.150Z,12.6
2022-10-31T01:31:19.330Z,12.7
2022-10-31T01:32:19.510Z,12.6
2022-10-31T01:33:19.339Z,12.7
2022-10-31T01:34:19.010Z,12.7
2022-10-31T01:35:19.104Z,12.7
2022-10-31T01:36:19.354Z,12.7
2022-10-31T01:37:19.009Z,12.7
2022-10-31T01:38:19.029Z,12.8
2022-10-31T01:39:19.125Z,12.7
2022-10-31T01:40:19.041Z,12.8
2022-10-31T01:41:19.000Z,12.8
2022-10-31T01:42:18.999Z,12.8
2022-10-31T01:43:18.986Z,12.8
2022-10-31T01:44:19.002Z,12.8
2022-10-31T01:45:19.042Z,12.8
2022-10-31T01:46:19.010Z,12.8
2022-10-31T01:47:19.008Z,12.8
2022-10-31T01:48:19.034Z,12.8
2022-10-31T01:49:19.007Z,12.8
2022-10-31T01:50:19.045Z,12.8
2022-10-31T01:51:19.013Z,12.8
2022-10-31T01:52:19.000Z,12.9
2022-10-31T01:53:21.749Z,12.8
2022-10-31T01:54:18.997Z,12.9
2022-10-31T01:55:19.037Z,12.9
2022-10-31T01:56:19.009Z,12.9
2022-10-31T01:57:19.001Z,12.9
2022-10-31T01:59:18.998Z,12.9
2022-10-31T02:00:19.024Z,13
2022-10-31T02:01:19.181Z,12.9
2022-10-31T02:02:19.363Z,13
2022-10-31T02:03:19.024Z,13
2022-10-31T02:04:19.011Z,13
2022-10-31T02:05:19.003Z,13
2022-10-31T02:06:19.010Z,13
2022-10-31T02:07:19.010Z,13
2022-10-31T02:08:19.034Z,13
2022-10-31T02:09:19.022Z,13
2022-10-31T02:10:19.002Z,13
2022-10-31T02:11:19.028Z,13
2022-10-31T02:12:19.010Z,13
2022-10-31T02:13:19.088Z,13
2022-10-31T02:14:19.018Z,13
2022-10-31T02:15:18.999Z,13.1
2022-10-31T02:16:19.010Z,13.1
2022-10-31T02:17:19.011Z,13.1
2022-10-31T02:18:19.009Z,13.1
2022-10-31T02:19:19.025Z,13.1
2022-10-31T02:20:19.001Z,13.1
2022-10-31T02:21:19.035Z,13.1
2022-10-31T02:22:19.007Z,13.1
2022-10-31T02:23:19.014Z,13.1
2022-10-31T02:24:19.010Z,13.1
2022-10-31T02:25:19.092Z,13.1
2022-10-31T02:26:19.047Z,13.1
2022-10-31T02:27:19.010Z,13.1
2022-10-31T02:29:18.997Z,13.1
2022-10-31T02:30:19.002Z,13.1
2022-10-31T02:31:19.013Z,13.2
2022-10-31T02:32:19.017Z,13.2
2022-10-31T02:33:18.993Z,13.2
2022-10-31T02:34:19.049Z,13.2
2022-10-31T02:35:19.002Z,13.2
2022-10-31T02:36:18.997Z,13.2
2022-10-31T02:37:19.083Z,13.2
2022-10-31T02:38:19.012Z,13.2
2022-10-31T02:39:19.032Z,13.2
2022-10-31T02:40:18.997Z,13.2
2022-10-31T02:41:18.993Z,13.2
2022-10-31T02:42:18.991Z,13.2
2022-10-31T02:43:19.000Z,13.2
2022-10-31T02:44:19.046Z,13.2
2022-10-31T02:45:18.994Z,13.2
2022-10-31T02:46:19.007Z,13.2
2022-10-31T02:47:19.020Z,13.2
2022-10-31T02:48:19.007Z,13.2
2022-10-31T02:49:19.228Z,13.2
2022-10-31T02:50:19.001Z,13.2
2022-10-31T02:51:19.012Z,13.2
2022-10-31T02:52:19.017Z,13.2
2022-10-31T02:53:19.183Z,13.2
2022-10-31T02:54:19.542Z,13.2
2022-10-31T02:55:19.756Z,13.2
2022-10-31T02:56:19.354Z,13.2
2022-10-31T02:57:19.103Z,13.2
2022-10-31T02:59:19.642Z,13.1
2022-10-31T03:00:19.017Z,13.1
2022-10-31T03:01:19.347Z,13.1
2022-10-31T03:02:19.112Z,13.1
2022-10-31T03:03:19.004Z,13.1
2022-10-31T03:04:19.005Z,13.1
2022-10-31T03:05:18.998Z,13.1
2022-10-31T03:06:18.994Z,13
2022-10-31T03:07:18.995Z,13
2022-10-31T03:08:19.009Z,13
2022-10-31T03:09:18.991Z,12.9
2022-10-31T03:10:19.195Z,12.9
2022-10-31T03:11:19.445Z,12.9
2022-10-31T03:12:19.010Z,12.8
2022-10-31T03:13:19.199Z,12.8
2022-10-31T03:14:18.992Z,12.7
2022-10-31T03:15:19.162Z,12.7
2022-10-31T03:16:19.011Z,12.7
2022-10-31T03:17:19.287Z,12.6
2022-10-31T03:18:18.981Z,12.6
2022-10-31T03:19:19.300Z,12.5
2022-10-31T03:20:19.008Z,12.5
2022-10-31T03:21:19.023Z,12.5
2022-10-31T03:22:19.006Z,12.4
2022-10-31T03:23:19.007Z,12.4
2022-10-31T03:24:19.065Z,12.3
2022-10-31T03:25:19.298Z,12.3
2022-10-31T03:26:18.998Z,12.3
2022-10-31T03:27:19.003Z,12.2
2022-10-31T03:29:19.001Z,12.1
2022-10-31T03:30:19.007Z,12.1
2022-10-31T03:31:19.002Z,12.1
2022-10-31T03:32:19.003Z,12.1
2022-10-31T03:33:19.013Z,12
2022-10-31T03:34:19.027Z,12
2022-10-31T03:35:19.205Z,11.9
2022-10-31T03:36:19.030Z,11.9
2022-10-31T03:37:19.015Z,11.8
2022-10-31T03:38:19.012Z,11.8
2022-10-31T03:39:19.006Z,11.8
2022-10-31T03:40:19.000Z,11.7
2022-10-31T03:41:18.996Z,11.7
2022-10-31T03:42:19.009Z,11.7
2022-10-31T03:43:19.017Z,11.7
2022-10-31T03:44:19.013Z,11.7
2022-10-31T03:45:19.017Z,11.6
2022-10-31T03:46:19.013Z,11.6
2022-10-31T03:47:19.221Z,11.6
2022-10-31T03:48:19.009Z,11.5
2022-10-31T03:49:19.007Z,11.5
2022-10-31T03:50:19.008Z,11.5
2022-10-31T03:51:18.996Z,11.5
2022-10-31T03:52:19.006Z,11.5
2022-10-31T03:53:19.004Z,11.5
2022-10-31T03:54:18.998Z,11.5
2022-10-31T03:55:19.008Z,11.5
2022-10-31T03:56:19.019Z,11.6
2022-10-31T03:57:19.021Z,11.6
2022-10-31T03:59:19.150Z,11.6
2022-10-31T04:00:19.002Z,11.6
2022-10-31T04:01:19.143Z,11.6
2022-10-31T04:02:19.189Z,11.5
2022-10-31T04:03:19.013Z,11.5
2022-10-31T04:04:19.020Z,11.5
2022-10-31T04:05:19.004Z,11.5
2022-10-31T04:06:19.006Z,11.4
2022-10-31T04:07:19.020Z,11.4
2022-10-31T04:08:19.017Z,11.4
2022-10-31T04:09:19.006Z,11.4
2022-10-31T04:10:19.182Z,11.4
2022-10-31T04:11:19.006Z,11.4
2022-10-31T04:12:18.995Z,11.4
2022-10-31T04:14:19.012Z,11.4
2022-10-31T04:15:19.010Z,11.3
2022-10-31T04:16:19.015Z,11.4
2022-10-31T04:17:19.001Z,11.4
2022-10-31T04:18:19.021Z,11.4
2022-10-31T04:19:18.991Z,11.4
2022-10-31T04:20:19.021Z,11.4
2022-10-31T04:21:19.024Z,11.4
2022-10-31T04:22:19.014Z,11.4
2022-10-31T04:23:19.002Z,11.4
2022-10-31T04:24:18.997Z,11.5
2022-10-31T04:25:19.019Z,11.5
2022-10-31T04:26:19.000Z,11.5
2022-10-31T04:27:19.005Z,11.5
2022-10-31T04:29:18.995Z,11.6
2022-10-31T04:30:19.004Z,11.6
2022-10-31T04:31:19.015Z,11.6
2022-10-31T04:32:19.013Z,11.7
2022-10-31T04:33:19.014Z,11.7
2022-10-31T04:34:19.007Z,11.7
2022-10-31T04:35:19.014Z,11.7
2022-10-31T04:36:19.004Z,11.7
2022-10-31T04:37:18.998Z,11.7
2022-10-31T04:38:19.017Z,11.7
2022-10-31T04:39:22.560Z,11.7
2022-10-31T04:40:19.004Z,11.7
2022-10-31T04:41:18.997Z,11.8
2022-10-31T04:42:18.991Z,11.8
2022-10-31T04:44:19.005Z,11.8
2022-10-31T04:45:23.189Z,11.8
2022-10-31T04:46:19.334Z,11.9
2022-10-31T04:47:19.590Z,11.9
2022-10-31T04:48:19.009Z,11.9
2022-10-31T04:49:19.016Z,11.9
2022-10-31T04:50:19.277Z,11.9
2022-10-31T04:51:18.999Z,11.9
2022-10-31T04:52:18.996Z,11.9
2022-10-31T04:53:19.023Z,12
2022-10-31T04:54:19.010Z,11.9
2022-10-31T04:55:19.050Z,11.9
2022-10-31T04:56:19.023Z,11.9
2022-10-31T04:57:19.008Z,11.9
2022-10-31T04:58:19.001Z,11.9
2022-10-31T04:59:18.996Z,11.8
2022-10-31T05:00:19.059Z,11.8
2022-10-31T05:01:19.145Z,11.8
2022-10-31T05:02:19.038Z,11.8
2022-10-31T05:03:19.006Z,11.7
2022-10-31T05:04:18.998Z,11.7
2022-10-31T05:05:19.038Z,11.7
2022-10-31T05:06:19.023Z,11.7
2022-10-31T05:07:19.019Z,11.6
2022-10-31T05:08:19.243Z,11.6
2022-10-31T05:09:19.000Z,11.5
2022-10-31T05:10:18.996Z,11.5
2022-10-31T05:11:18.994Z,11.4
2022-10-31T05:12:19.001Z,11.4
2022-10-31T05:13:19.046Z,11.3
2022-10-31T05:14:19.009Z,11.2
2022-10-31T05:15:19.006Z,11.2
2022-10-31T05:16:19.020Z,11.2
2022-10-31T05:17:19.015Z,11.1
2022-10-31T05:18:19.110Z,11.1
2022-10-31T05:19:19.582Z,11.1
2022-10-31T05:20:19.011Z,11
2022-10-31T05:21:19.305Z,11
2022-10-31T05:22:19.524Z,11
2022-10-31T05:23:19.053Z,10.9
2022-10-31T05:24:19.299Z,10.9
2022-10-31T05:25:19.002Z,10.8
2022-10-31T05:26:19.289Z,10.8
2022-10-31T05:27:19.590Z,10.8
2022-10-31T05:28:19.820Z,10.8
2022-10-31T05:29:19.018Z,10.8
2022-10-31T05:30:19.004Z,10.7
2022-10-31T05:31:19.014Z,10.7
2022-10-31T05:32:19.119Z,10.7
2022-10-31T05:33:18.999Z,10.7
2022-10-31T05:34:19.004Z,10.7
2022-10-31T05:35:19.002Z,10.7
2022-10-31T05:36:18.999Z,10.7
2022-10-31T05:37:19.005Z,10.7
2022-10-31T05:38:19.009Z,10.7
2022-10-31T05:39:19.033Z,10.7
2022-10-31T05:40:19.008Z,10.6
2022-10-31T05:41:19.290Z,10.6
2022-10-31T05:42:19.029Z,10.6
2022-10-31T05:43:19.012Z,10.6
2022-10-31T05:44:19.004Z,10.6
2022-10-31T05:45:19.008Z,10.6
2022-10-31T05:46:19.006Z,10.6
2022-10-31T05:47:19.005Z,10.5
2022-10-31T05:48:19.018Z,10.5
2022-10-31T05:49:18.997Z,10.5
2022-10-31T05:50:19.000Z,10.5
2022-10-31T05:51:19.000Z,10.4
2022-10-31T05:52:19.004Z,10.4
2022-10-31T05:53:19.013Z,10.4
2022-10-31T05:54:19.017Z,10.4
2022-10-31T05:55:19.050Z,10.4
2022-10-31T05:56:19.011Z,10.3
2022-10-31T05:57:19.002Z,10.3
2022-10-31T05:58:19.001Z,10.3
2022-10-31T05:59:19.013Z,10.3
2022-10-31T06:00:19.148Z,10.3
2022-10-31T06:01:19.033Z,10.2
2022-10-31T06:02:19.011Z,10.2
2022-10-31T06:03:19.002Z,10.2
2022-10-31T06:04:19.059Z,10.2
2022-10-31T06:05:19.039Z,10.2
2022-10-31T06:06:19.033Z,10.1
2022-10-31T06:07:19.015Z,10.1
2022-10-31T06:08:19.007Z,10.1
2022-10-31T06:09:18.996Z,10.1
2022-10-31T06:10:19.002Z,10.1
2022-10-31T06:11:19.002Z,10.1
2022-10-31T06:12:19.017Z,10
2022-10-31T06:13:19.013Z,10
2022-10-31T06:14:19.014Z,10
2022-10-31T06:15:23.667Z,10
2022-10-31T06:16:19.021Z,10
2022-10-31T06:17:19.018Z,10
2022-10-31T06:18:19.022Z,9.9
2022-10-31T06:19:19.024Z,9.9
2022-10-31T06:20:19.001Z,9.9
2022-10-31T06:21:19.216Z,9.9
2022-10-31T06:22:19.047Z,9.9
2022-10-31T06:23:19.002Z,9.9
2022-10-31T06:24:19.002Z,9.9
2022-10-31T06:25:19.020Z,10
2022-10-31T06:26:19.006Z,9.9
2022-10-31T06:27:18.997Z,10
2022-10-31T06:28:19.159Z,10
2022-10-31T06:29:19.391Z,10
2022-10-31T06:30:19.845Z,10
2022-10-31T06:31:19.013Z,10
2022-10-31T06:32:19.329Z,10
2022-10-31T06:33:18.999Z,10
2022-10-31T06:34:19.009Z,10
2022-10-31T06:35:19.002Z,10
2022-10-31T06:36:19.033Z,10
2022-10-31T06:37:19.034Z,10
2022-10-31T06:38:19.321Z,10
2022-10-31T06:39:19.018Z,10.1
2022-10-31T06:40:19.019Z,10.1
2022-10-31T06:41:19.031Z,10.1
2022-10-31T06:42:19.003Z,10
2022-10-31T06:43:19.021Z,10.1
2022-10-31T06:44:19.012Z,10.1
2022-10-31T06:45:19.004Z,10.1
2022-10-31T06:46:19.003Z,10.1
2022-10-31T06:47:19.001Z,10.1
2022-10-31T06:48:19.098Z,10.1
2022-10-31T06:49:19.015Z,10.1
2022-10-31T06:50:19.014Z,10.1
2022-10-31T06:51:19.013Z,10.1
2022-10-31T06:52:19.023Z,10.1
2022-10-31T06:53:19.101Z,10.1
2022-10-31T06:54:19.004Z,10.2
2022-10-31T06:55:18.997Z,10.2
2022-10-31T06:56:18.995Z,10.2
2022-10-31T06:57:19.002Z,10.2
2022-10-31T06:58:19.010Z,10.2
2022-10-31T06:59:19.000Z,10.3
2022-10-31T07:00:19.017Z,10.2
2022-10-31T07:01:19.155Z,10.3
2022-10-31T07:02:19.077Z,10.3
2022-10-31T07:03:19.011Z,10.3
2022-10-31T07:04:19.008Z,10.3
2022-10-31T07:05:19.008Z,10.3
2022-10-31T07:06:18.997Z,10.4
2022-10-31T07:07:19.006Z,10.4
2022-10-31T07:08:19.010Z,10.4
2022-10-31T07:09:19.014Z,10.4
2022-10-31T07:10:19.014Z,10.5
2022-10-31T07:11:19.004Z,10.5
2022-10-31T07:12:19.006Z,10.5
2022-10-31T07:13:19.000Z,10.5
2022-10-31T07:14:19.009Z,10.5
2022-10-31T07:15:19.026Z,10.6
2022-10-31T07:16:18.997Z,10.6
2022-10-31T07:17:18.999Z,10.6
2022-10-31T07:18:18.997Z,10.6
2022-10-31T07:19:18.994Z,10.6
2022-10-31T07:20:19.001Z,10.6
2022-10-31T07:21:18.997Z,10.7
2022-10-31T07:22:18.999Z,10.7
2022-10-31T07:23:18.993Z,10.7
2022-10-31T07:24:19.011Z,10.7
2022-10-31T07:25:19.016Z,10.8
2022-10-31T07:26:19.013Z,10.8
2022-10-31T07:27:19.132Z,10.8
2022-10-31T07:28:19.015Z,10.9
2022-10-31T07:29:19.012Z,10.9
2022-10-31T07:30:19.002Z,11
2022-10-31T07:31:19.010Z,11
2022-10-31T07:32:19.003Z,11.1
2022-10-31T07:33:19.005Z,11.1
2022-10-31T07:34:18.996Z,11.1
2022-10-31T07:35:19.017Z,11.2
2022-10-31T07:36:19.016Z,11.2
2022-10-31T07:37:19.012Z,11.2
2022-10-31T07:38:19.013Z,11.3
2022-10-31T07:39:19.052Z,11.3
2022-10-31T07:40:18.996Z,11.3
2022-10-31T07:41:18.995Z,11.4
2022-10-31T07:42:19.006Z,11.4
2022-10-31T07:43:19.012Z,11.4
2022-10-31T07:44:19.018Z,11.5
2022-10-31T07:45:19.018Z,11.5
2022-10-31T07:46:19.001Z,11.5
2022-10-31T07:47:19.009Z,11.6
2022-10-31T07:48:18.992Z,11.6
2022-10-31T07:49:20.148Z,11.6
2022-10-31T07:50:19.495Z,11.6
2022-10-31T07:51:19.820Z,11.7
2022-10-31T07:52:19.190Z,11.7
2022-10-31T07:53:18.991Z,11.7
2022-10-31T07:54:19.011Z,11.7
2022-10-31T07:55:19.303Z,11.7
2022-10-31T07:56:19.076Z,11.7
2022-10-31T07:57:22.740Z,11.8
2022-10-31T07:58:19.628Z,11.9
2022-10-31T07:59:19.058Z,11.9
2022-10-31T08:00:19.001Z,11.9
2022-10-31T08:01:19.230Z,12
2022-10-31T08:02:19.554Z,12
2022-10-31T08:03:19.825Z,12.1
2022-10-31T08:04:19.464Z,12.1
2022-10-31T08:05:19.025Z,12.2
2022-10-31T08:06:19.038Z,12.2
2022-10-31T08:07:19.017Z,12.2
2022-10-31T08:08:19.011Z,12.3
2022-10-31T08:09:19.017Z,12.3
2022-10-31T08:10:18.998Z,12.3
2022-10-31T08:11:19.022Z,12.4
2022-10-31T08:12:19.007Z,12.4
2022-10-31T08:13:19.005Z,12.4
2022-10-31T08:14:19.020Z,12.5
2022-10-31T08:15:19.022Z,12.5
2022-10-31T08:16:19.004Z,12.6
2022-10-31T08:17:19.000Z,12.6
2022-10-31T08:18:18.997Z,12.6
2022-10-31T08:19:19.009Z,12.7
2022-10-31T08:20:19.029Z,12.7
2022-10-31T08:21:19.003Z,12.7
2022-10-31T08:22:19.006Z,12.7
2022-10-31T08:23:19.007Z,12.8
2022-10-31T08:24:19.011Z,12.9
2022-10-31T08:25:19.056Z,12.9
2022-10-31T08:26:19.007Z,13
2022-10-31T08:27:19.099Z,13
2022-10-31T08:28:19.021Z,13
2022-10-31T08:29:19.004Z,13.1
2022-10-31T08:30:19.021Z,13.1
2022-10-31T08:31:19.022Z,13.1
2022-10-31T08:32:19.003Z,13.1
2022-10-31T08:33:19.007Z,13.2
2022-10-31T08:34:19.011Z,13.2
2022-10-31T08:35:19.012Z,13.3
2022-10-31T08:36:19.022Z,13.3
2022-10-31T08:37:19.042Z,13.3
2022-10-31T08:38:19.244Z,13.3
2022-10-31T08:39:19.048Z,13.4
2022-10-31T08:40:19.016Z,13.5
2022-10-31T08:41:19.001Z,13.5
2022-10-31T08:42:19.003Z,13.5
2022-10-31T08:43:19.022Z,13.5
2022-10-31T08:44:19.014Z,13.6
2022-10-31T08:45:19.016Z,13.6
2022-10-31T08:46:18.998Z,13.6
2022-10-31T08:47:19.022Z,13.7
2022-10-31T08:48:19.043Z,13.7
2022-10-31T08:49:19.142Z,13.7
2022-10-31T08:50:19.001Z,13.7
2022-10-31T08:51:19.006Z,13.7
2022-10-31T08:52:19.007Z,13.8
2022-10-31T08:53:19.298Z,13.7
2022-10-31T08:54:19.603Z,13.7
2022-10-31T08:55:19.817Z,13.8
2022-10-31T08:56:19.005Z,13.8
2022-10-31T08:57:19.029Z,13.8
2022-10-31T08:58:19.050Z,13.9
2022-10-31T08:59:19.054Z,13.9
2022-10-31T09:00:19.040Z,13.9
2022-10-31T09:01:19.193Z,13.9
2022-10-31T09:02:19.083Z,14
2022-10-31T09:03:19.014Z,14
2022-10-31T09:04:19.010Z,14
2022-10-31T09:05:19.031Z,14
2022-10-31T09:06:19.044Z,14.1
2022-10-31T09:07:21.169Z,14.1
2022-10-31T09:08:19.019Z,14.1
2022-10-31T09:09:19.009Z,14.1
2022-10-31T09:10:19.013Z,14.2
2022-10-31T09:11:19.017Z,14.2
2022-10-31T09:12:19.014Z,14.3
2022-10-31T09:13:19.004Z,14.3
2022-10-31T09:14:18.996Z,14.3
2022-10-31T09:15:19.008Z,14.4
2022-10-31T09:16:19.003Z,14.4
2022-10-31T09:17:19.008Z,14.4
2022-10-31T09:18:18.995Z,14.4
2022-10-31T09:19:19.008Z,14.5
2022-10-31T09:20:19.031Z,14.5
2022-10-31T09:21:19.041Z,14.5
2022-10-31T09:22:19.076Z,14.6
2022-10-31T09:23:19.046Z,14.6
2022-10-31T09:24:19.014Z,14.7
2022-10-31T09:25:19.019Z,14.7
2022-10-31T09:26:19.005Z,14.8
2022-10-31T09:27:19.000Z,14.8
2022-10-31T09:28:19.002Z,14.8
2022-10-31T09:29:19.019Z,14.9
2022-10-31T09:30:18.997Z,14.9
2022-10-31T09:31:18.998Z,15
2022-10-31T09:32:19.019Z,15
2022-10-31T09:33:19.020Z,15.1
2022-10-31T09:34:19.003Z,15.1
2022-10-31T09:35:20.375Z,15.2
2022-10-31T09:36:19.001Z,15.2
2022-10-31T09:37:19.011Z,15.3
2022-10-31T09:38:19.013Z,15.3
2022-10-31T09:39:18.997Z,15.4
2022-10-31T09:40:19.025Z,15.4
2022-10-31T09:41:19.057Z,15.5
2022-10-31T09:42:19.318Z,15.5
2022-10-31T09:43:19.071Z,15.5
2022-10-31T09:44:19.321Z,15.6
2022-10-31T09:45:19.680Z,15.6
2022-10-31T09:46:19.305Z,15.7
2022-10-31T09:47:18.997Z,15.7
2022-10-31T09:48:18.999Z,15.7
2022-10-31T09:49:19.161Z,15.8
2022-10-31T09:50:19.304Z,15.8
2022-10-31T09:51:19.000Z,15.8
2022-10-31T09:52:19.005Z,15.9
2022-10-31T09:53:19.010Z,15.9
2022-10-31T09:54:19.016Z,15.9
2022-10-31T09:55:19.018Z,16
2022-10-31T09:56:19.003Z,16
2022-10-31T09:57:19.003Z,16.1
2022-10-31T09:58:19.015Z,16.1
2022-10-31T09:59:19.046Z,16.1
2022-10-31T10:00:18.995Z,16.1
2022-10-31T10:01:19.175Z,16.2
2022-10-31T10:02:19.085Z,16.2
2022-10-31T10:03:19.018Z,16.2
2022-10-31T10:04:20.709Z,16.3
2022-10-31T10:05:19.009Z,16.3
2022-10-31T10:06:19.024Z,16.3
2022-10-31T10:07:19.134Z,16.4
2022-10-31T10:08:19.011Z,16.4
2022-10-31T10:09:19.045Z,16.5
2022-10-31T10:10:18.997Z,16.5
2022-10-31T10:11:18.991Z,16.5
2022-10-31T10:12:19.012Z,16.6
2022-10-31T10:13:18.993Z,16.6
2022-10-31T10:14:19.052Z,16.7
2022-10-31T10:15:19.021Z,16.7
2022-10-31T10:16:18.996Z,16.7
2022-10-31T10:17:19.028Z,16.8
2022-10-31T10:18:19.008Z,16.8
2022-10-31T10:19:19.034Z,16.8
2022-10-31T10:20:20.690Z,16.9
2022-10-31T10:21:19.016Z,16.9
2022-10-31T10:22:19.010Z,17
2022-10-31T10:23:19.023Z,17
2022-10-31T10:24:19.025Z,17
2022-10-31T10:25:19.000Z,17
2022-10-31T10:26:19.077Z,17.2
2022-10-31T10:27:20.623Z,17.2
2022-10-31T10:28:19.013Z,17.2
2022-10-31T10:29:19.028Z,17.2
2022-10-31T10:30:18.990Z,17.2
2022-10-31T10:31:18.996Z,17.2
2022-10-31T10:32:19.005Z,17.2
2022-10-31T10:33:19.000Z,17.2
2022-10-31T10:34:19.008Z,17.2
2022-10-31T10:35:19.011Z,17.3
2022-10-31T10:36:19.012Z,17.3
2022-10-31T10:37:18.994Z,17.3
2022-10-31T10:38:19.004Z,17.2
2022-10-31T10:39:19.021Z,17.3
2022-10-31T10:40:19.017Z,17.2
2022-10-31T10:41:19.017Z,17.2
2022-10-31T10:42:19.032Z,17.2
2022-10-31T10:43:19.003Z,17.2
2022-10-31T10:44:19.005Z,17.2
2022-10-31T10:45:18.993Z,17.2
2022-10-31T10:46:19.008Z,17.2
2022-10-31T10:47:19.000Z,17
2022-10-31T10:48:19.017Z,17
2022-10-31T10:49:19.022Z,17
2022-10-31T10:50:19.068Z,17
2022-10-31T10:51:25.443Z,16.9
2022-10-31T10:52:39.565Z,16.9
2022-10-31T10:53:19.027Z,16.9
2022-10-31T10:54:18.996Z,16.9
2022-10-31T10:55:18.973Z,16.8
2022-10-31T10:56:20.242Z,16.8
2022-10-31T10:57:19.338Z,16.8
2022-10-31T10:58:19.154Z,16.8
2022-10-31T10:59:19.487Z,16.8
2022-10-31T11:00:19.149Z,16.8
2022-10-31T11:01:19.038Z,16.8
2022-10-31T11:02:19.013Z,16.8
2022-10-31T11:03:19.019Z,16.8
2022-10-31T11:04:19.026Z,16.8
2022-10-31T11:05:19.026Z,16.8
2022-10-31T11:06:19.010Z,16.8
2022-10-31T11:07:19.092Z,16.8
2022-10-31T11:08:21.496Z,16.8
2022-10-31T11:09:19.224Z,16.8
2022-10-31T11:10:19.185Z,16.9
2022-10-31T11:11:19.282Z,16.9
2022-10-31T11:12:19.021Z,16.9
2022-10-31T11:13:19.007Z,16.9
2022-10-31T11:14:19.018Z,16.9
2022-10-31T11:15:19.275Z,17
2022-10-31T11:16:19.598Z,17
2022-10-31T11:17:19.028Z,17
2022-10-31T11:18:19.336Z,17.2
2022-10-31T11:19:19.013Z,17.2
2022-10-31T11:20:19.282Z,17.3
2022-10-31T11:21:18.993Z,17.4
2022-10-31T11:22:19.007Z,17.5
2022-10-31T11:23:19.017Z,17.6
2022-10-31T11:24:19.010Z,17.6
2022-10-31T11:25:19.031Z,17.7
2022-10-31T11:26:19.138Z,17.8
2022-10-31T11:27:19.007Z,17.9
2022-10-31T11:28:19.005Z,18
2022-10-31T11:29:19.013Z,18.1
2022-10-31T11:30:19.040Z,18.2
2022-10-31T11:31:19.006Z,18.2
2022-10-31T11:32:18.998Z,18.3
2022-10-31T11:33:19.013Z,18.4
2022-10-31T11:34:19.024Z,18.5
2022-10-31T11:35:19.015Z,18.7
2022-10-31T11:36:19.041Z,18.7
2022-10-31T11:37:19.007Z,18.8
2022-10-31T11:38:18.997Z,18.8
2022-10-31T11:39:18.998Z,18.8
2022-10-31T11:40:19.009Z,18.9
2022-10-31T11:41:19.035Z,18.8
2022-10-31T11:42:19.019Z,18.9
2022-10-31T11:43:19.002Z,18.8
2022-10-31T11:44:19.009Z,18.8
2022-10-31T11:45:19.001Z,18.8
2022-10-31T11:46:19.035Z,18.8
2022-10-31T11:47:19.004Z,18.8
2022-10-31T11:48:19.134Z,18.8
2022-10-31T11:49:19.005Z,18.8
2022-10-31T11:50:19.005Z,18.8
2022-10-31T11:51:19.038Z,18.8
2022-10-31T11:52:19.004Z,18.7
2022-10-31T11:53:19.004Z,18.7
2022-10-31T11:54:18.996Z,18.7
2022-10-31T11:55:19.003Z,18.7
2022-10-31T11:56:19.025Z,18.7
2022-10-31T11:57:19.002Z,18.7
2022-10-31T11:58:19.015Z,18.7
2022-10-31T11:59:19.042Z,18.7
2022-10-31T12:00:19.066Z,18.7
2022-10-31T12:01:19.037Z,18.5
2022-10-31T12:02:19.158Z,18.5
2022-10-31T12:03:19.027Z,18.5
2022-10-31T12:04:19.051Z,18.5
2022-10-31T12:05:19.027Z,18.5
2022-10-31T12:06:18.997Z,18.5
2022-10-31T12:07:19.007Z,18.5
2022-10-31T12:08:19.031Z,18.5
2022-10-31T12:09:19.021Z,18.5
2022-10-31T12:10:18.989Z,18.5
2022-10-31T12:11:19.002Z,18.5
2022-10-31T12:12:19.005Z,18.5
2022-10-31T12:13:19.010Z,18.5
2022-10-31T12:14:18.989Z,18.5
2022-10-31T12:15:19.003Z,18.5
2022-10-31T12:16:18.995Z,18.5
2022-10-31T12:17:18.994Z,18.5
2022-10-31T12:18:19.027Z,18.5
2022-10-31T12:19:19.007Z,18.5
2022-10-31T12:20:19.019Z,18.5
2022-10-31T12:21:19.010Z,18.5
2022-10-31T12:22:19.008Z,18.7
2022-10-31T12:23:19.050Z,18.7
2022-10-31T12:24:19.023Z,18.7
2022-10-31T12:25:18.999Z,18.7
2022-10-31T12:26:19.004Z,18.7
2022-10-31T12:27:19.003Z,18.8
2022-10-31T12:28:19.016Z,18.8
2022-10-31T12:29:19.033Z,18.9
2022-10-31T12:30:19.024Z,18.9
2022-10-31T12:31:19.011Z,18.9
2022-10-31T12:32:19.026Z,19
2022-10-31T12:33:19.010Z,19
2022-10-31T12:34:19.136Z,19
2022-10-31T12:35:18.999Z,19.1
2022-10-31T12:36:18.983Z,19.1
2022-10-31T12:37:19.002Z,19.1
2022-10-31T12:38:19.013Z,19.1
2022-10-31T12:39:19.057Z,19.1
2022-10-31T12:40:18.996Z,19.1
2022-10-31T12:41:19.009Z,19.1
2022-10-31T12:42:19.000Z,19.2
2022-10-31T12:43:19.023Z,19.2
2022-10-31T12:44:19.028Z,19.1
2022-10-31T12:45:19.006Z,19.2
2022-10-31T12:46:18.997Z,19.2
2022-10-31T12:47:18.998Z,19.2
2022-10-31T12:48:19.008Z,19.2
2022-10-31T12:49:19.011Z,19.3
2022-10-31T12:50:19.008Z,19.3
2022-10-31T12:51:19.011Z,19.3
2022-10-31T12:52:19.158Z,19.4
2022-10-31T12:54:19.707Z,19.4
2022-10-31T12:55:19.366Z,19.4
2022-10-31T12:56:19.650Z,19.5
2022-10-31T12:57:19.177Z,19.5
2022-10-31T12:58:19.891Z,19.5
2022-10-31T12:59:19.288Z,19.5
2022-10-31T13:00:19.059Z,19.5
2022-10-31T13:01:19.393Z,19.5
2022-10-31T13:02:19.052Z,19.5
2022-10-31T13:03:19.008Z,19.5
2022-10-31T13:04:19.002Z,19.5
2022-10-31T13:05:19.011Z,19.5
2022-10-31T13:06:19.006Z,19.4
2022-10-31T13:07:19.018Z,19.5
2022-10-31T13:08:19.006Z,19.5
2022-10-31T13:09:19.138Z,19.5
2022-10-31T13:10:18.999Z,19.5
2022-10-31T13:11:19.006Z,19.4
2022-10-31T13:12:18.994Z,19.5
2022-10-31T13:13:18.999Z,19.5
2022-10-31T13:14:18.996Z,19.5
2022-10-31T13:15:19.007Z,19.5
2022-10-31T13:16:19.002Z,19.4
2022-10-31T13:17:19.001Z,19.5
2022-10-31T13:18:18.999Z,19.5
2022-10-31T13:19:19.018Z,19.5
2022-10-31T13:20:18.998Z,19.5
2022-10-31T13:21:18.990Z,19.5
2022-10-31T13:22:18.995Z,19.5
2022-10-31T13:23:44.587Z,19.5
2022-10-31T13:24:18.994Z,19.5
2022-10-31T13:25:19.014Z,19.5
2022-10-31T13:26:19.011Z,19.5
2022-10-31T13:27:19.008Z,19.4
2022-10-31T13:28:18.995Z,19.4
2022-10-31T13:29:19.022Z,19.4
2022-10-31T13:30:18.997Z,19.4
2022-10-31T13:31:19.030Z,19.4
2022-10-31T13:32:19.000Z,19.4
2022-10-31T13:33:19.008Z,19.4